sensor_id;sensor_type;location;lat;lon;timestamp;pressure;altitude;pressure_sealevel;temperature;humidity
58771;BME280;44539;42.962;1.596;2023-03-22T08:06:49;96882.56;;;7.59;100.00
58771;BME280;44539;42.962;1.596;2023-03-22T08:09:16;96885.72;;;7.78;100.00
58771;BME280;44539;42.962;1.596;2023-03-22T08:11:41;96882.78;;;7.98;100.00
58771;BME280;44539;42.962;1.596;2023-03-22T08:14:06;96874.00;;;8.14;100.00
58771;BME280;44539;42.962;1.596;2023-03-22T08:16:33;96873.81;;;8.32;100.00
58771;BME280;44539;42.962;1.596;2023-03-22T08:18:58;96870.66;;;8.53;100.00
58771;BME280;44539;42.962;1.596;2023-03-22T08:21:24;96878.06;;;8.74;97.11
58771;BME280;44539;42.962;1.596;2023-03-22T08:23:49;96869.25;;;8.90;96.12
58771;BME280;44539;42.962;1.596;2023-03-22T08:26:15;96865.16;;;9.10;95.85
58771;BME280;44539;42.962;1.596;2023-03-22T08:28:42;96867.09;;;9.25;97.00
58771;BME280;44539;42.962;1.596;2023-03-22T08:31:11;96866.56;;;9.29;94.57
58771;BME280;44539;42.962;1.596;2023-03-22T08:33:37;96859.69;;;9.43;95.87
58771;BME280;44539;42.962;1.596;2023-03-22T08:36:08;96859.34;;;9.46;96.50
58771;BME280;44539;42.962;1.596;2023-03-22T08:38:34;96856.59;;;9.63;98.42
58771;BME280;44539;42.962;1.596;2023-03-22T08:40:59;96856.81;;;9.76;93.00
58771;BME280;44539;42.962;1.596;2023-03-22T08:43:25;96852.69;;;9.96;89.66
58771;BME280;44539;42.962;1.596;2023-03-22T08:45:50;96861.44;;;10.20;86.42
58771;BME280;44539;42.962;1.596;2023-03-22T08:48:15;96856.72;;;10.30;87.83
58771;BME280;44539;42.962;1.596;2023-03-22T08:50:41;96849.97;;;10.42;89.87
58771;BME280;44539;42.962;1.596;2023-03-22T08:53:06;96855.38;;;10.64;85.06
58771;BME280;44539;42.962;1.596;2023-03-22T08:55:32;96852.63;;;10.72;82.29
58771;BME280;44539;42.962;1.596;2023-03-22T08:58:00;96853.75;;;10.78;81.47
58771;BME280;44539;42.962;1.596;2023-03-22T09:00:26;96852.53;;;10.95;80.83
58771;BME280;44539;42.962;1.596;2023-03-22T09:02:51;96847.75;;;11.20;79.20
58771;BME280;44539;42.962;1.596;2023-03-22T09:05:17;96844.03;;;11.36;79.01
58771;BME280;44539;42.962;1.596;2023-03-22T09:07:43;96843.22;;;11.57;77.10
58771;BME280;44539;42.962;1.596;2023-03-22T09:10:09;96841.72;;;11.70;77.11
58771;BME280;44539;42.962;1.596;2023-03-22T09:12:35;96838.44;;;11.89;74.33
58771;BME280;44539;42.962;1.596;2023-03-22T09:15:01;96833.47;;;12.08;71.95
58771;BME280;44539;42.962;1.596;2023-03-22T09:17:26;96835.69;;;12.25;70.37
58771;BME280;44539;42.962;1.596;2023-03-22T09:19:52;96831.66;;;12.36;71.61
58771;BME280;44539;42.962;1.596;2023-03-22T09:22:17;96827.97;;;12.65;68.15
58771;BME280;44539;42.962;1.596;2023-03-22T09:24:42;96822.78;;;12.99;67.00
58771;BME280;44539;42.962;1.596;2023-03-22T09:27:08;96818.38;;;13.26;66.87
58771;BME280;44539;42.962;1.596;2023-03-22T09:29:34;96813.09;;;13.39;64.74
58771;BME280;44539;42.962;1.596;2023-03-22T09:31:59;96811.84;;;13.28;65.28
58771;BME280;44539;42.962;1.596;2023-03-22T09:34:25;96817.00;;;13.43;63.95
58771;BME280;44539;42.962;1.596;2023-03-22T09:36:51;96810.91;;;13.63;64.08
58771;BME280;44539;42.962;1.596;2023-03-22T09:39:17;96803.50;;;13.58;64.02
58771;BME280;44539;42.962;1.596;2023-03-22T09:41:48;96798.78;;;13.67;66.50
58771;BME280;44539;42.962;1.596;2023-03-22T09:44:25;96793.88;;;13.91;63.85
58771;BME280;44539;42.962;1.596;2023-03-22T09:46:53;96786.28;;;14.27;62.44
58771;BME280;44539;42.962;1.596;2023-03-22T09:49:23;96783.78;;;14.39;60.27
58771;BME280;44539;42.962;1.596;2023-03-22T09:51:52;96785.84;;;14.37;58.59
58771;BME280;44539;42.962;1.596;2023-03-22T09:54:36;96785.84;;;14.37;59.52
58771;BME280;44539;42.962;1.596;2023-03-22T09:57:22;96777.63;;;14.45;56.18
58771;BME280;44539;42.962;1.596;2023-03-22T10:10:32;96764.72;;;15.01;54.67
58771;BME280;44539;42.962;1.596;2023-03-22T10:13:10;96770.41;;;15.18;53.79
58771;BME280;44539;42.962;1.596;2023-03-22T10:18:16;96765.03;;;15.56;51.46
58771;BME280;44539;42.962;1.596;2023-03-22T10:20:51;96767.06;;;15.61;49.68
58771;BME280;44539;42.962;1.596;2023-03-22T10:26:23;96770.28;;;15.69;49.75
58771;BME280;44539;42.962;1.596;2023-03-22T10:31:42;96775.31;;;15.91;48.26
58771;BME280;44539;42.962;1.596;2023-03-22T10:34:23;96782.28;;;16.17;52.41
58771;BME280;44539;42.962;1.596;2023-03-22T10:36:52;96774.28;;;16.36;51.16
58771;BME280;44539;42.962;1.596;2023-03-22T10:39:31;96783.91;;;16.43;52.96
58771;BME280;44539;42.962;1.596;2023-03-22T10:42:10;96781.16;;;16.50;47.15
58771;BME280;44539;42.962;1.596;2023-03-22T10:44:46;96782.69;;;16.83;44.82
58771;BME280;44539;42.962;1.596;2023-03-22T10:47:14;96780.31;;;17.11;43.69
58771;BME280;44539;42.962;1.596;2023-03-22T10:49:46;96790.25;;;17.41;43.64
58771;BME280;44539;42.962;1.596;2023-03-22T10:52:37;96782.31;;;17.46;43.48
58771;BME280;44539;42.962;1.596;2023-03-22T10:55:12;96784.78;;;17.48;43.67
58771;BME280;44539;42.962;1.596;2023-03-22T10:57:38;96782.69;;;17.50;43.42
58771;BME280;44539;42.962;1.596;2023-03-22T11:00:05;96781.69;;;17.74;39.97
58771;BME280;44539;42.962;1.596;2023-03-22T11:02:52;96780.72;;;17.99;41.55
58771;BME280;44539;42.962;1.596;2023-03-22T11:05:23;96787.16;;;17.98;40.45
58771;BME280;44539;42.962;1.596;2023-03-22T11:07:49;96784.22;;;18.00;40.81
58771;BME280;44539;42.962;1.596;2023-03-22T11:10:30;96788.47;;;18.07;42.69
58771;BME280;44539;42.962;1.596;2023-03-22T11:15:37;96791.06;;;18.38;39.42
58771;BME280;44539;42.962;1.596;2023-03-22T11:18:14;96788.81;;;18.58;38.08
58771;BME280;44539;42.962;1.596;2023-03-22T11:20:42;96790.81;;;18.63;39.15
58771;BME280;44539;42.962;1.596;2023-03-22T11:23:16;96787.06;;;18.64;37.16
58771;BME280;44539;42.962;1.596;2023-03-22T11:25:46;96789.41;;;18.72;37.91
58771;BME280;44539;42.962;1.596;2023-03-22T11:28:27;96790.44;;;18.47;37.45
58771;BME280;44539;42.962;1.596;2023-03-22T11:31:04;96785.09;;;18.59;35.28
58771;BME280;44539;42.962;1.596;2023-03-22T11:33:30;96790.09;;;18.55;35.43
58771;BME280;44539;42.962;1.596;2023-03-22T11:35:58;96790.56;;;18.76;35.73
58771;BME280;44539;42.962;1.596;2023-03-22T11:40:58;96777.66;;;19.02;33.81
58771;BME280;44539;42.962;1.596;2023-03-22T11:43:36;96777.81;;;18.95;31.67
58771;BME280;44539;42.962;1.596;2023-03-22T11:46:03;96774.59;;;19.10;32.88
58771;BME280;44539;42.962;1.596;2023-03-22T11:48:31;96770.41;;;19.31;31.85
58771;BME280;44539;42.962;1.596;2023-03-22T11:51:09;96771.19;;;19.43;30.88
58771;BME280;44539;42.962;1.596;2023-03-22T11:53:41;96766.47;;;19.22;31.12
58771;BME280;44539;42.962;1.596;2023-03-22T11:56:09;96765.97;;;19.36;32.08
58771;BME280;44539;42.962;1.596;2023-03-22T12:01:03;96760.81;;;19.64;30.14
58771;BME280;44539;42.962;1.596;2023-03-22T12:03:32;96756.44;;;19.74;29.81
58771;BME280;44539;42.962;1.596;2023-03-22T12:06:04;96764.66;;;19.68;29.32
58771;BME280;44539;42.962;1.596;2023-03-22T12:11:36;96751.28;;;19.90;28.67
58771;BME280;44539;42.962;1.596;2023-03-22T12:16:55;96746.41;;;20.04;29.21
58771;BME280;44539;42.962;1.596;2023-03-22T12:21:55;96740.50;;;20.24;29.05
58771;BME280;44539;42.962;1.596;2023-03-22T12:24:31;96734.38;;;20.11;29.88
58771;BME280;44539;42.962;1.596;2023-03-22T12:26:59;96727.41;;;20.32;29.36
58771;BME280;44539;42.962;1.596;2023-03-22T12:29:28;96727.94;;;20.12;29.50
58771;BME280;44539;42.962;1.596;2023-03-22T12:32:01;96718.38;;;20.05;30.39
58771;BME280;44539;42.962;1.596;2023-03-22T12:34:37;96708.91;;;20.19;29.75
58771;BME280;44539;42.962;1.596;2023-03-22T12:37:06;96706.19;;;20.19;29.88
58771;BME280;44539;42.962;1.596;2023-03-22T12:39:44;96701.00;;;20.34;29.71
58771;BME280;44539;42.962;1.596;2023-03-22T12:42:23;96695.41;;;20.80;28.58
58771;BME280;44539;42.962;1.596;2023-03-22T12:44:53;96699.59;;;20.66;28.10
58771;BME280;44539;42.962;1.596;2023-03-22T12:47:27;96692.72;;;20.80;27.63
58771;BME280;44539;42.962;1.596;2023-03-22T12:55:19;96680.78;;;20.76;26.85
58771;BME280;44539;42.962;1.596;2023-03-22T12:57:45;96683.56;;;21.30;26.76
58771;BME280;44539;42.962;1.596;2023-03-22T13:00:16;96675.28;;;21.69;26.75
58771;BME280;44539;42.962;1.596;2023-03-22T13:02:51;96667.75;;;21.44;28.96
58771;BME280;44539;42.962;1.596;2023-03-22T13:05:18;96669.31;;;21.40;27.75
58771;BME280;44539;42.962;1.596;2023-03-22T13:26:46;96636.19;;;21.45;27.01
58771;BME280;44539;42.962;1.596;2023-03-22T13:31:58;96623.44;;;22.20;27.72
58771;BME280;44539;42.962;1.596;2023-03-22T13:34:39;96612.38;;;21.79;26.95
58771;BME280;44539;42.962;1.596;2023-03-22T13:37:16;96613.66;;;21.66;26.77
58771;BME280;44539;42.962;1.596;2023-03-22T13:39:50;96609.84;;;21.35;29.41
58771;BME280;44539;42.962;1.596;2023-03-22T13:42:20;96606.09;;;21.36;28.16
58771;BME280;44539;42.962;1.596;2023-03-22T13:44:54;96602.28;;;21.05;28.06
58771;BME280;44539;42.962;1.596;2023-03-22T13:47:35;96600.72;;;21.09;29.23
58771;BME280;44539;42.962;1.596;2023-03-22T13:50:17;96600.03;;;21.24;27.67
58771;BME280;44539;42.962;1.596;2023-03-22T13:52:57;96586.28;;;21.25;29.47
58771;BME280;44539;42.962;1.596;2023-03-22T14:01:02;96583.50;;;20.88;29.81
58771;BME280;44539;42.962;1.596;2023-03-22T14:03:35;96580.28;;;20.64;30.71
58771;BME280;44539;42.962;1.596;2023-03-22T14:06:10;96583.03;;;20.69;31.10
58771;BME280;44539;42.962;1.596;2023-03-22T14:08:41;96578.06;;;20.83;33.12
58771;BME280;44539;42.962;1.596;2023-03-22T14:11:48;96575.19;;;20.94;32.19
58771;BME280;44539;42.962;1.596;2023-03-22T14:14:23;96572.22;;;21.55;32.64
58771;BME280;44539;42.962;1.596;2023-03-22T14:17:01;96568.66;;;21.45;32.18
58771;BME280;44539;42.962;1.596;2023-03-22T14:19:30;96568.66;;;21.45;31.01
58771;BME280;44539;42.962;1.596;2023-03-22T14:22:00;96564.13;;;22.08;34.58
58771;BME280;44539;42.962;1.596;2023-03-22T14:24:29;96560.28;;;22.47;30.55
58771;BME280;44539;42.962;1.596;2023-03-22T14:26:57;96562.03;;;22.20;32.56
58771;BME280;44539;42.962;1.596;2023-03-22T14:29:26;96554.00;;;22.36;30.84
58771;BME280;44539;42.962;1.596;2023-03-22T14:31:58;96551.16;;;22.68;30.00
58771;BME280;44539;42.962;1.596;2023-03-22T14:34:26;96557.13;;;22.86;32.27
58771;BME280;44539;42.962;1.596;2023-03-22T14:36:56;96547.38;;;22.95;33.93
58771;BME280;44539;42.962;1.596;2023-03-22T14:39:31;96541.19;;;23.61;30.07
58771;BME280;44539;42.962;1.596;2023-03-22T14:42:05;96545.50;;;22.95;30.95
58771;BME280;44539;42.962;1.596;2023-03-22T14:44:39;96540.94;;;23.47;29.46
58771;BME280;44539;42.962;1.596;2023-03-22T14:49:41;96539.06;;;23.07;30.96
58771;BME280;44539;42.962;1.596;2023-03-22T14:52:16;96533.59;;;22.96;32.27
58771;BME280;44539;42.962;1.596;2023-03-22T14:54:45;96532.53;;;23.18;33.39
58771;BME280;44539;42.962;1.596;2023-03-22T14:57:13;96526.31;;;23.43;31.53
58771;BME280;44539;42.962;1.596;2023-03-22T14:59:40;96534.41;;;23.02;31.14
58771;BME280;44539;42.962;1.596;2023-03-22T15:05:00;96531.81;;;22.24;32.24
58771;BME280;44539;42.962;1.596;2023-03-22T15:07:28;96528.13;;;21.50;30.07
58771;BME280;44539;42.962;1.596;2023-03-22T15:10:21;96519.47;;;21.95;31.28
58771;BME280;44539;42.962;1.596;2023-03-22T15:12:49;96526.63;;;21.69;33.11
58771;BME280;44539;42.962;1.596;2023-03-22T15:15:18;96528.22;;;21.65;31.05
58771;BME280;44539;42.962;1.596;2023-03-22T15:17:44;96523.50;;;21.88;37.06
58771;BME280;44539;42.962;1.596;2023-03-22T15:20:14;96529.03;;;21.60;32.34
58771;BME280;44539;42.962;1.596;2023-03-22T15:22:48;96531.78;;;21.71;34.91
58771;BME280;44539;42.962;1.596;2023-03-22T15:25:14;96531.94;;;21.49;34.49
58771;BME280;44539;42.962;1.596;2023-03-22T15:27:41;96526.66;;;21.32;32.94
58771;BME280;44539;42.962;1.596;2023-03-22T15:30:08;96529.44;;;21.10;32.56
58771;BME280;44539;42.962;1.596;2023-03-22T15:32:39;96530.53;;;20.82;33.95
58771;BME280;44539;42.962;1.596;2023-03-22T15:35:06;96522.78;;;20.36;32.60
58771;BME280;44539;42.962;1.596;2023-03-22T15:37:35;96529.34;;;20.45;34.09
58771;BME280;44539;42.962;1.596;2023-03-22T15:40:03;96525.63;;;20.51;34.82
58771;BME280;44539;42.962;1.596;2023-03-22T15:42:35;96534.16;;;20.65;37.83
58771;BME280;44539;42.962;1.596;2023-03-22T15:50:22;96536.16;;;20.75;35.35
58771;BME280;44539;42.962;1.596;2023-03-22T15:52:58;96540.38;;;20.66;35.08
58771;BME280;44539;42.962;1.596;2023-03-22T15:55:37;96550.22;;;20.55;35.58
58771;BME280;44539;42.962;1.596;2023-03-22T15:58:14;96551.50;;;20.25;35.47
58771;BME280;44539;42.962;1.596;2023-03-22T16:00:41;96558.88;;;20.35;38.67
58771;BME280;44539;42.962;1.596;2023-03-22T16:05:34;96558.94;;;20.18;35.30
58771;BME280;44539;42.962;1.596;2023-03-22T16:08:01;96555.06;;;20.09;35.09
58771;BME280;44539;42.962;1.596;2023-03-22T16:10:29;96568.31;;;20.10;35.70
58771;BME280;44539;42.962;1.596;2023-03-22T16:12:55;96565.53;;;20.05;36.29
58771;BME280;44539;42.962;1.596;2023-03-22T16:15:25;96566.00;;;20.19;37.22
58771;BME280;44539;42.962;1.596;2023-03-22T16:17:51;96571.31;;;20.14;38.93
58771;BME280;44539;42.962;1.596;2023-03-22T16:20:17;96576.16;;;19.95;39.74
58771;BME280;44539;42.962;1.596;2023-03-22T16:22:45;96575.34;;;19.72;39.85
58771;BME280;44539;42.962;1.596;2023-03-22T16:25:22;96575.56;;;19.54;39.78
58771;BME280;44539;42.962;1.596;2023-03-22T16:27:50;96582.59;;;19.38;41.48
58771;BME280;44539;42.962;1.596;2023-03-22T16:30:16;96584.56;;;19.26;42.87
58771;BME280;44539;42.962;1.596;2023-03-22T16:32:44;96582.19;;;19.12;44.66
58771;BME280;44539;42.962;1.596;2023-03-22T16:35:21;96584.53;;;18.92;46.05
58771;BME280;44539;42.962;1.596;2023-03-22T16:37:47;96590.13;;;18.90;45.62
58771;BME280;44539;42.962;1.596;2023-03-22T16:40:15;96592.75;;;18.85;46.24
58771;BME280;44539;42.962;1.596;2023-03-22T16:42:41;96594.50;;;18.80;46.71
58771;BME280;44539;42.962;1.596;2023-03-22T16:45:14;96599.28;;;18.77;46.59
58771;BME280;44539;42.962;1.596;2023-03-22T16:47:43;96593.47;;;18.69;47.31
58771;BME280;44539;42.962;1.596;2023-03-22T16:50:09;96600.88;;;18.62;47.33
58771;BME280;44539;42.962;1.596;2023-03-22T16:52:34;96612.31;;;18.69;47.39
58771;BME280;44539;42.962;1.596;2023-03-22T16:55:00;96622.03;;;18.70;48.46
58771;BME280;44539;42.962;1.596;2023-03-22T16:57:25;96623.91;;;18.69;46.98
58771;BME280;44539;42.962;1.596;2023-03-22T16:59:53;96624.66;;;18.53;47.17
58771;BME280;44539;42.962;1.596;2023-03-22T17:02:34;96620.59;;;18.79;47.23
58771;BME280;44539;42.962;1.596;2023-03-22T17:05:00;96622.75;;;18.65;47.18
58771;BME280;44539;42.962;1.596;2023-03-22T17:07:31;96626.31;;;18.42;47.96
58771;BME280;44539;42.962;1.596;2023-03-22T17:09:57;96618.22;;;18.54;47.79
58771;BME280;44539;42.962;1.596;2023-03-22T17:12:25;96624.59;;;18.36;48.17
58771;BME280;44539;42.962;1.596;2023-03-22T17:14:51;96627.19;;;18.31;48.50
58771;BME280;44539;42.962;1.596;2023-03-22T17:17:17;96621.00;;;18.19;49.23
58771;BME280;44539;42.962;1.596;2023-03-22T17:19:44;96635.97;;;18.03;49.69
58771;BME280;44539;42.962;1.596;2023-03-22T17:22:10;96631.78;;;17.95;49.77
58771;BME280;44539;42.962;1.596;2023-03-22T17:24:37;96629.53;;;17.92;49.95
58771;BME280;44539;42.962;1.596;2023-03-22T17:27:04;96624.28;;;17.85;50.34
58771;BME280;44539;42.962;1.596;2023-03-22T17:29:30;96621.94;;;17.77;50.59
58771;BME280;44539;42.962;1.596;2023-03-22T17:31:56;96624.50;;;17.72;50.77
58771;BME280;44539;42.962;1.596;2023-03-22T17:34:22;96636.06;;;17.72;50.56
58771;BME280;44539;42.962;1.596;2023-03-22T17:36:47;96644.13;;;17.61;51.25
58771;BME280;44539;42.962;1.596;2023-03-22T17:39:13;96641.78;;;17.52;51.54
58771;BME280;44539;42.962;1.596;2023-03-22T17:41:38;96638.28;;;17.52;51.61
58771;BME280;44539;42.962;1.596;2023-03-22T17:44:04;96639.22;;;17.46;51.82
58771;BME280;44539;42.962;1.596;2023-03-22T17:46:30;96649.00;;;17.40;51.79
58771;BME280;44539;42.962;1.596;2023-03-22T17:48:55;96646.31;;;17.28;52.50
58771;BME280;44539;42.962;1.596;2023-03-22T17:51:21;96656.19;;;17.16;53.44
58771;BME280;44539;42.962;1.596;2023-03-22T17:53:46;96658.72;;;17.11;53.32
58771;BME280;44539;42.962;1.596;2023-03-22T17:56:14;96659.41;;;17.06;52.96
58771;BME280;44539;42.962;1.596;2023-03-22T17:58:39;96668.28;;;17.07;53.14
58771;BME280;44539;42.962;1.596;2023-03-22T18:01:05;96677.25;;;17.01;53.12
58771;BME280;44539;42.962;1.596;2023-03-22T18:03:30;96675.91;;;16.91;53.71
58771;BME280;44539;42.962;1.596;2023-03-22T18:05:55;96675.78;;;16.86;53.83
58771;BME280;44539;42.962;1.596;2023-03-22T18:08:21;96671.91;;;16.82;54.18
58771;BME280;44539;42.962;1.596;2023-03-22T18:10:47;96666.47;;;16.70;54.55
58771;BME280;44539;42.962;1.596;2023-03-22T18:13:12;96677.44;;;16.69;55.13
58771;BME280;44539;42.962;1.596;2023-03-22T18:15:38;96682.03;;;16.62;55.93
58771;BME280;44539;42.962;1.596;2023-03-22T18:18:03;96682.41;;;16.47;57.19
58771;BME280;44539;42.962;1.596;2023-03-22T18:20:29;96696.88;;;16.46;56.90
58771;BME280;44539;42.962;1.596;2023-03-22T18:22:55;96695.09;;;16.40;56.86
58771;BME280;44539;42.962;1.596;2023-03-22T18:25:21;96694.47;;;16.19;58.05
58771;BME280;44539;42.962;1.596;2023-03-22T18:27:47;96692.75;;;16.06;59.01
58771;BME280;44539;42.962;1.596;2023-03-22T18:30:16;96687.44;;;16.00;58.36
